Time;durP1;ratioP1;P1;durP2;ratioP2;P2;SDS_P1;SDS_P2;PMS_P1;PMS_P2;Temp;Humidity;BMP_temperature;BMP_pressure;BME280_temperature;BME280_humidity;BME280_pressure;Samples;Min_cycle;Max_cycle;Signal;HPM_P1;HPM_P2
2023/02/27 00:01:09;;;;;;;6.95;2.75;;;;;;;;;;5078399;28;20436;-66
2023/02/27 00:03:35;;;;;;;7.75;3.13;;;;;;;;;;5067035;28;20047;-66
2023/02/27 00:06:01;;;;;;;6.57;3.00;;;;;;;;;;5078591;28;20097;-66
2023/02/27 00:08:28;;;;;;;8.95;2.72;;;;;;;;;;5084426;28;20039;-66
2023/02/27 00:10:54;;;;;;;7.40;2.50;;;;;;;;;;5103119;28;20036;-66
2023/02/27 00:13:20;;;;;;;8.82;2.60;;;;;;;;;;5102432;28;20480;-66
2023/02/27 00:15:48;;;;;;;6.78;2.72;;;;;;;;;;5097177;28;20073;-66
2023/02/27 00:18:14;;;;;;;9.07;2.97;;;;;;;;;;5062048;28;20167;-66
2023/02/27 00:20:40;;;;;;;6.40;3.03;;;;;;;;;;5098345;28;20356;-66
2023/02/27 00:23:09;;;;;;;8.35;3.35;;;;;;;;;;5095527;28;20028;-66
2023/02/27 00:25:35;;;;;;;8.48;3.65;;;;;;;;;;5095220;28;20596;-66
2023/02/27 00:28:03;;;;;;;8.93;3.65;;;;;;;;;;5097282;28;20070;-66
2023/02/27 00:30:29;;;;;;;8.35;2.72;;;;;;;;;;5097049;28;20090;-66
2023/02/27 00:32:55;;;;;;;7.50;3.88;;;;;;;;;;5094972;28;20107;-66
2023/02/27 00:35:21;;;;;;;9.38;3.60;;;;;;;;;;5094958;28;20483;-66
2023/02/27 00:37:48;;;;;;;9.55;3.78;;;;;;;;;;5097382;28;20036;-66
2023/02/27 00:40:14;;;;;;;9.25;2.92;;;;;;;;;;5092627;28;20188;-66
2023/02/27 00:42:40;;;;;;;8.18;2.47;;;;;;;;;;5097304;28;20118;-66
2023/02/27 00:45:07;;;;;;;13.38;2.85;;;;;;;;;;5081401;28;20180;-66
2023/02/27 00:47:33;;;;;;;8.98;3.20;;;;;;;;;;5102533;28;20036;-66
2023/02/27 00:50:00;;;;;;;9.55;3.38;;;;;;;;;;5103281;28;20188;-66
2023/02/27 00:52:26;;;;;;;6.93;2.97;;;;;;;;;;5104204;28;20551;-66
2023/02/27 00:54:52;;;;;;;7.22;2.80;;;;;;;;;;5095142;28;20083;-66
2023/02/27 00:57:19;;;;;;;12.50;3.60;;;;;;;;;;5076124;28;20051;-66
2023/02/27 00:59:45;;;;;;;7.60;2.80;;;;;;;;;;5089113;28;20058;-66
2023/02/27 01:02:11;;;;;;;8.70;3.28;;;;;;;;;;5094722;28;20043;-66
2023/02/27 01:04:37;;;;;;;12.38;3.10;;;;;;;;;;5091453;28;20044;-66
2023/02/27 01:07:04;;;;;;;8.90;2.85;;;;;;;;;;5090949;28;20624;-66
2023/02/27 01:09:30;;;;;;;11.15;3.00;;;;;;;;;;5092201;28;20122;-66
2023/02/27 01:11:56;;;;;;;8.27;3.08;;;;;;;;;;5094254;28;20052;-66
2023/02/27 01:14:22;;;;;;;8.65;2.80;;;;;;;;;;5091004;28;20544;-66
2023/02/27 01:16:49;;;;;;;5.45;2.38;;;;;;;;;;5089191;28;20040;-66
2023/02/27 01:19:15;;;;;;;10.90;2.70;;;;;;;;;;5091854;28;20044;-66
2023/02/27 01:21:41;;;;;;;9.75;2.28;;;;;;;;;;5078983;28;20150;-66
2023/02/27 01:24:08;;;;;;;7.88;2.50;;;;;;;;;;5095824;28;20093;-66
2023/02/27 01:26:34;;;;;;;6.63;2.30;;;;;;;;;;5094463;28;20096;-66
2023/02/27 01:29:00;;;;;;;10.20;2.50;;;;;;;;;;5092838;28;20039;-66
2023/02/27 01:31:26;;;;;;;7.35;2.42;;;;;;;;;;5095736;28;20064;-66
2023/02/27 01:33:52;;;;;;;6.72;2.78;;;;;;;;;;5096137;28;20109;-66
2023/02/27 01:36:19;;;;;;;11.18;2.20;;;;;;;;;;5094919;28;20122;-66
2023/02/27 01:41:48;;;;;;;10.18;2.67;;;;;;;;;;5024722;28;20054;-67
2023/02/27 01:44:14;;;;;;;7.70;2.65;;;;;;;;;;5020411;28;20046;-67
2023/02/27 01:46:41;;;;;;;5.90;2.15;;;;;;;;;;5010564;28;20496;-66
2023/02/27 01:49:10;;;;;;;7.10;1.98;;;;;;;;;;5014652;28;20038;-66
2023/02/27 01:51:39;;;;;;;6.40;2.10;;;;;;;;;;4999476;28;20069;-66
2023/02/27 01:54:08;;;;;;;8.13;2.38;;;;;;;;;;5017876;28;20984;-66
2023/02/27 01:56:35;;;;;;;9.18;3.45;;;;;;;;;;5026594;28;20495;-66
2023/02/27 01:59:03;;;;;;;8.50;2.60;;;;;;;;;;5028226;28;20049;-66
2023/02/27 02:01:31;;;;;;;6.13;2.28;;;;;;;;;;5029581;28;20248;-66
2023/02/27 02:03:57;;;;;;;3.85;1.65;;;;;;;;;;5027941;28;20042;-66
2023/02/27 02:06:24;;;;;;;10.63;2.28;;;;;;;;;;5028539;28;20053;-66
2023/02/27 02:08:51;;;;;;;5.53;1.92;;;;;;;;;;5022643;28;20046;-66
2023/02/27 02:11:18;;;;;;;6.13;2.10;;;;;;;;;;5025500;28;20137;-66
2023/02/27 02:13:44;;;;;;;7.47;2.33;;;;;;;;;;5023360;28;20216;-66
2023/02/27 02:16:32;;;;;;;6.35;2.25;;;;;;;;;;5020226;28;20041;-66
2023/02/27 02:19:06;;;;;;;9.50;2.08;;;;;;;;;;5019550;28;20045;-66
2023/02/27 02:21:32;;;;;;;4.43;1.75;;;;;;;;;;5019164;28;20045;-66
2023/02/27 02:23:58;;;;;;;5.05;2.30;;;;;;;;;;5020750;28;20056;-66
2023/02/27 02:26:47;;;;;;;6.95;2.85;;;;;;;;;;5018994;28;20178;-66
2023/02/27 02:29:13;;;;;;;5.40;2.20;;;;;;;;;;5018592;28;20033;-66
2023/02/27 02:31:58;;;;;;;7.43;2.05;;;;;;;;;;5020806;28;20045;-66
2023/02/27 02:34:38;;;;;;;7.82;1.80;;;;;;;;;;5018706;28;20156;-66
2023/02/27 02:37:16;;;;;;;9.90;2.65;;;;;;;;;;5021549;28;20488;-66
2023/02/27 02:39:55;;;;;;;5.22;2.00;;;;;;;;;;5022054;28;20052;-66
2023/02/27 02:42:24;;;;;;;7.07;1.80;;;;;;;;;;5020967;28;20049;-66
2023/02/27 02:45:03;;;;;;;7.38;1.67;;;;;;;;;;5002927;28;20064;-66
2023/02/27 02:47:32;;;;;;;9.63;1.67;;;;;;;;;;5002215;28;20783;-66
2023/02/27 02:50:09;;;;;;;7.18;1.80;;;;;;;;;;5008647;28;20188;-66
2023/02/27 02:52:41;;;;;;;6.15;2.38;;;;;;;;;;5005234;28;20044;-66
2023/02/27 02:55:07;;;;;;;10.82;1.90;;;;;;;;;;5013928;28;20493;-66
2023/02/27 02:57:43;;;;;;;8.75;2.08;;;;;;;;;;5019154;28;20045;-66
2023/02/27 03:00:19;;;;;;;5.32;1.73;;;;;;;;;;5021755;28;20080;-66
2023/02/27 03:02:48;;;;;;;9.43;1.65;;;;;;;;;;5019107;28;20168;-66
2023/02/27 03:05:20;;;;;;;6.68;2.05;;;;;;;;;;5021577;28;20045;-66
2023/02/27 03:07:49;;;;;;;8.20;1.90;;;;;;;;;;5018681;28;20507;-66
2023/02/27 03:10:19;;;;;;;6.80;2.15;;;;;;;;;;5019825;28;20496;-66
2023/02/27 03:12:48;;;;;;;7.18;1.98;;;;;;;;;;5022359;28;20042;-66
2023/02/27 03:15:17;;;;;;;4.38;1.67;;;;;;;;;;5023586;28;20049;-66
2023/02/27 03:17:47;;;;;;;5.88;1.85;;;;;;;;;;5019438;28;20689;-66
2023/02/27 03:20:18;;;;;;;5.63;1.73;;;;;;;;;;5018452;28;20108;-66
2023/02/27 03:22:46;;;;;;;6.65;1.98;;;;;;;;;;5023548;28;20049;-66
2023/02/27 03:25:13;;;;;;;7.75;1.85;;;;;;;;;;5026246;28;20041;-66
2023/02/27 03:27:45;;;;;;;9.63;1.90;;;;;;;;;;5024263;28;20487;-66
2023/02/27 03:30:23;;;;;;;6.22;1.95;;;;;;;;;;5024645;28;20691;-66
2023/02/27 03:32:59;;;;;;;5.65;1.75;;;;;;;;;;5024234;28;20049;-66
2023/02/27 03:35:29;;;;;;;6.35;1.30;;;;;;;;;;5023696;28;20042;-66
2023/02/27 03:38:01;;;;;;;7.13;1.70;;;;;;;;;;5021602;28;20060;-66
2023/02/27 03:40:31;;;;;;;7.10;2.33;;;;;;;;;;5024197;28;20267;-66
2023/02/27 03:43:01;;;;;;;4.47;1.58;;;;;;;;;;5020897;28;20044;-66
2023/02/27 03:45:36;;;;;;;12.23;2.70;;;;;;;;;;5010145;28;20440;-66
2023/02/27 03:48:03;;;;;;;8.13;1.92;;;;;;;;;;5007385;28;20128;-66
2023/02/27 03:50:29;;;;;;;6.97;1.88;;;;;;;;;;5008022;28;20156;-66
2023/02/27 03:52:56;;;;;;;8.60;1.83;;;;;;;;;;5012521;28;20064;-66
2023/02/27 03:55:26;;;;;;;6.97;1.75;;;;;;;;;;5014676;28;20041;-66
2023/02/27 03:57:53;;;;;;;5.63;1.65;;;;;;;;;;5021034;28;20082;-66
2023/02/27 04:00:20;;;;;;;4.22;1.52;;;;;;;;;;5017709;28;20648;-66
2023/02/27 04:02:49;;;;;;;4.18;1.50;;;;;;;;;;5029148;28;20064;-66
2023/02/27 04:05:15;;;;;;;5.65;1.55;;;;;;;;;;5028327;28;20080;-66
2023/02/27 04:07:51;;;;;;;8.57;1.77;;;;;;;;;;5024719;28;20037;-66
2023/02/27 04:10:29;;;;;;;5.25;1.85;;;;;;;;;;5024322;28;20041;-66
2023/02/27 04:12:59;;;;;;;4.70;2.05;;;;;;;;;;5018524;28;21814;-66
2023/02/27 04:15:29;;;;;;;4.88;1.67;;;;;;;;;;5019711;28;20057;-67
2023/02/27 04:18:14;;;;;;;3.90;1.33;;;;;;;;;;5022149;28;20042;-66
2023/02/27 04:20:41;;;;;;;6.47;1.85;;;;;;;;;;5021403;28;20042;-66
2023/02/27 04:23:18;;;;;;;12.35;2.28;;;;;;;;;;5022000;28;20597;-66
2023/02/27 04:25:53;;;;;;;10.50;2.03;;;;;;;;;;5021264;28;20045;-66
2023/02/27 04:28:27;;;;;;;11.65;2.20;;;;;;;;;;5023221;28;20484;-66
2023/02/27 04:30:53;;;;;;;;;;;;;;;;;;5021833;28;21538;-66
2023/02/27 04:33:37;;;;;;;3.05;1.33;;;;;;;;;;5022031;28;19921;-66
2023/02/27 04:36:06;;;;;;;6.85;1.77;;;;;;;;;;5019679;28;20060;-66
2023/02/27 04:38:40;;;;;;;6.55;1.80;;;;;;;;;;5019331;28;20049;-66
2023/02/27 04:41:12;;;;;;;5.10;1.23;;;;;;;;;;5017760;28;20050;-66
2023/02/27 04:43:39;;;;;;;8.02;1.55;;;;;;;;;;5012578;28;20058;-66
2023/02/27 04:46:06;;;;;;;7.63;1.60;;;;;;;;;;5010241;28;20042;-66
2023/02/27 04:48:36;;;;;;;9.43;1.90;;;;;;;;;;5009306;28;20049;-66
2023/02/27 04:51:10;;;;;;;5.53;1.65;;;;;;;;;;5008536;28;20037;-66
2023/02/27 04:53:40;;;;;;;4.77;1.57;;;;;;;;;;5013666;28;20045;-66
2023/02/27 04:56:10;;;;;;;7.32;1.63;;;;;;;;;;5024732;28;20812;-66
2023/02/27 04:58:37;;;;;;;7.47;1.85;;;;;;;;;;5020845;28;20322;-66
2023/02/27 05:01:07;;;;;;;8.18;1.88;;;;;;;;;;5019930;28;20037;-66
2023/02/27 05:03:35;;;;;;;4.88;2.08;;;;;;;;;;5024159;28;20054;-66
2023/02/27 05:06:02;;;;;;;7.15;2.00;;;;;;;;;;5028515;28;20037;-66
2023/02/27 05:08:33;;;;;;;6.95;1.50;;;;;;;;;;5025309;28;20111;-66
2023/02/27 05:11:15;;;;;;;11.43;2.08;;;;;;;;;;5019873;28;20038;-66
2023/02/27 05:13:43;;;;;;;8.20;1.95;;;;;;;;;;5019873;28;20045;-66
2023/02/27 05:16:19;;;;;;;5.97;1.83;;;;;;;;;;5021832;28;20521;-66
2023/02/27 05:18:46;;;;;;;3.85;1.27;;;;;;;;;;5020621;28;20397;-66
2023/02/27 05:21:20;;;;;;;3.70;1.30;;;;;;;;;;5020797;28;20041;-66
2023/02/27 05:23:47;;;;;;;7.10;1.70;;;;;;;;;;5021470;28;20105;-66
2023/02/27 05:26:19;;;;;;;3.85;1.40;;;;;;;;;;5019866;28;20399;-66
2023/02/27 05:28:51;;;;;;;7.00;2.00;;;;;;;;;;5021536;28;20038;-66
2023/02/27 05:31:31;;;;;;;5.20;1.50;;;;;;;;;;5019941;28;20045;-66
2023/02/27 05:34:03;;;;;;;4.65;1.20;;;;;;;;;;5020407;28;20071;-66
2023/02/27 05:36:34;;;;;;;3.90;1.08;;;;;;;;;;5020015;28;20068;-66
2023/02/27 05:39:04;;;;;;;7.20;1.40;;;;;;;;;;5019277;28;20037;-66
2023/02/27 05:41:33;;;;;;;8.48;1.90;;;;;;;;;;5022196;28;21424;-66
2023/02/27 05:44:12;;;;;;;6.63;1.80;;;;;;;;;;5008862;28;20034;-66
2023/02/27 05:46:40;;;;;;;7.05;1.83;;;;;;;;;;5008744;28;20203;-66
2023/02/27 05:49:11;;;;;;;5.38;1.60;;;;;;;;;;5012046;28;20760;-66
2023/02/27 05:51:38;;;;;;;13.65;2.22;;;;;;;;;;5009476;28;20057;-67
2023/02/27 05:54:13;;;;;;;13.10;1.60;;;;;;;;;;5020856;28;20055;-66
2023/02/27 05:56:39;;;;;;;8.90;1.90;;;;;;;;;;5019937;28;20487;-66
2023/02/27 05:59:08;;;;;;;7.88;1.90;;;;;;;;;;5025062;28;20049;-66
2023/02/27 06:01:34;;;;;;;5.47;1.38;;;;;;;;;;5026647;28;20052;-66
2023/02/27 06:04:00;;;;;;;4.47;1.50;;;;;;;;;;5027749;28;20046;-66
2023/02/27 06:06:29;;;;;;;10.13;1.70;;;;;;;;;;5024292;28;20088;-66
2023/02/27 06:08:55;;;;;;;7.57;1.35;;;;;;;;;;5020415;28;20064;-66
2023/02/27 06:11:21;;;;;;;6.57;1.60;;;;;;;;;;5019176;28;20047;-66
2023/02/27 06:13:47;;;;;;;8.27;1.45;;;;;;;;;;5019509;28;20052;-66
2023/02/27 06:16:15;;;;;;;7.43;2.13;;;;;;;;;;5020076;28;20073;-66
2023/02/27 06:18:41;;;;;;;9.70;2.72;;;;;;;;;;5017746;28;20510;-66
2023/02/27 06:21:07;;;;;;;12.73;1.60;;;;;;;;;;5017516;28;20084;-66
2023/02/27 06:23:33;;;;;;;8.82;1.92;;;;;;;;;;5017553;28;20080;-66
2023/02/27 06:26:00;;;;;;;2.90;1.48;;;;;;;;;;5018974;28;20045;-66
2023/02/27 06:28:26;;;;;;;4.47;1.50;;;;;;;;;;5016526;28;20104;-66
2023/02/27 06:30:53;;;;;;;3.90;1.40;;;;;;;;;;5020418;28;20040;-66
2023/02/27 06:33:19;;;;;;;8.80;1.90;;;;;;;;;;5018749;28;20057;-66
2023/02/27 06:35:48;;;;;;;5.43;1.98;;;;;;;;;;5018456;28;20434;-66
2023/02/27 06:38:14;;;;;;;10.07;2.22;;;;;;;;;;5017000;28;20091;-66
2023/02/27 06:40:41;;;;;;;4.15;1.17;;;;;;;;;;5017853;28;20049;-66
2023/02/27 06:43:07;;;;;;;8.30;2.08;;;;;;;;;;5019699;28;20132;-67
2023/02/27 06:45:33;;;;;;;5.18;1.58;;;;;;;;;;5008923;28;20128;-67
2023/02/27 06:47:59;;;;;;;8.90;1.70;;;;;;;;;;5010264;28;20044;-67
2023/02/27 06:50:26;;;;;;;10.00;2.03;;;;;;;;;;5020341;28;20099;-67
2023/02/27 06:52:52;;;;;;;8.23;1.48;;;;;;;;;;5023954;28;20511;-67
2023/02/27 06:55:20;;;;;;;6.53;1.85;;;;;;;;;;5024530;28;20480;-67
2023/02/27 06:57:46;;;;;;;6.95;1.80;;;;;;;;;;5024988;28;20053;-67
2023/02/27 07:00:13;;;;;;;3.40;1.35;;;;;;;;;;5027587;28;20510;-67
2023/02/27 07:02:39;;;;;;;10.10;2.20;;;;;;;;;;5024796;28;20041;-66
2023/02/27 07:05:06;;;;;;;5.90;1.52;;;;;;;;;;5030459;28;20068;-66
2023/02/27 07:07:32;;;;;;;7.13;1.50;;;;;;;;;;5029141;28;20194;-80
2023/02/27 07:09:58;;;;;;;5.57;1.60;;;;;;;;;;5007411;28;20064;-85
2023/02/27 07:12:25;;;;;;;7.13;2.10;;;;;;;;;;5027124;28;20377;-83
2023/02/27 07:14:51;;;;;;;10.10;1.80;;;;;;;;;;5029275;28;21221;-84
2023/02/27 07:17:18;;;;;;;4.07;1.27;;;;;;;;;;5027197;28;20231;-81
2023/02/27 07:19:44;;;;;;;9.27;1.40;;;;;;;;;;5007402;28;20041;-85
2023/02/27 07:22:10;;;;;;;7.95;1.70;;;;;;;;;;5024433;28;20053;-84
2023/02/27 07:24:36;;;;;;;7.93;1.40;;;;;;;;;;5030216;28;20175;-85
2023/02/27 07:27:03;;;;;;;5.95;1.55;;;;;;;;;;5029632;28;20049;-86
2023/02/27 07:29:29;;;;;;;6.57;1.65;;;;;;;;;;5031745;28;20166;-88
2023/02/27 07:31:55;;;;;;;7.43;2.55;;;;;;;;;;5029262;28;20051;-90
2023/02/27 07:34:21;;;;;;;6.78;1.48;;;;;;;;;;5028128;28;20124;-87
2023/02/27 07:36:48;;;;;;;5.72;1.88;;;;;;;;;;5030703;28;20049;-91
2023/02/27 07:39:14;;;;;;;4.53;1.27;;;;;;;;;;5030615;28;20039;-85
2023/02/27 07:41:40;;;;;;;8.43;1.83;;;;;;;;;;5029613;28;20109;-82
2023/02/27 07:44:07;;;;;;;4.70;1.52;;;;;;;;;;5030076;28;20045;-82
2023/02/27 07:46:33;;;;;;;8.93;1.70;;;;;;;;;;5029378;28;20053;-81
2023/02/27 07:49:00;;;;;;;7.07;1.50;;;;;;;;;;5028609;28;20461;-82
2023/02/27 07:51:26;;;;;;;6.53;1.70;;;;;;;;;;5026543;28;20132;-83
2023/02/27 07:53:52;;;;;;;9.50;1.65;;;;;;;;;;5026612;28;20052;-83
2023/02/27 07:56:18;;;;;;;8.18;1.80;;;;;;;;;;5027289;28;20114;-83
2023/02/27 07:58:44;;;;;;;10.48;1.83;;;;;;;;;;5026578;28;20030;-84
2023/02/27 08:01:11;;;;;;;9.90;2.03;;;;;;;;;;5021442;28;20100;-83
2023/02/27 08:03:37;;;;;;;5.97;1.67;;;;;;;;;;5008072;28;20496;-83
2023/02/27 08:06:03;;;;;;;7.70;2.35;;;;;;;;;;5009926;28;20729;-83
2023/02/27 08:08:29;;;;;;;11.43;1.90;;;;;;;;;;5027690;28;20054;-83
2023/02/27 08:10:55;;;;;;;9.20;2.00;;;;;;;;;;5027192;28;20107;-84
2023/02/27 08:13:22;;;;;;;11.90;2.03;;;;;;;;;;5025916;28;20053;-83
2023/02/27 08:15:48;;;;;;;5.85;1.73;;;;;;;;;;5025794;28;20038;-83
2023/02/27 08:18:14;;;;;;;11.35;2.08;;;;;;;;;;5026921;28;20471;-83
2023/02/27 08:20:40;;;;;;;6.70;1.88;;;;;;;;;;5025474;28;20037;-85
2023/02/27 08:23:07;;;;;;;7.95;2.40;;;;;;;;;;5026186;28;20103;-84
2023/02/27 08:25:33;;;;;;;9.60;1.98;;;;;;;;;;5026813;28;20059;-84
2023/02/27 08:28:00;;;;;;;4.45;1.88;;;;;;;;;;5024794;28;20840;-84
2023/02/27 08:30:26;;;;;;;10.93;2.42;;;;;;;;;;5026492;28;20052;-84
2023/02/27 08:32:52;;;;;;;8.80;2.10;;;;;;;;;;5025988;28;20041;-84
2023/02/27 08:35:18;;;;;;;9.05;1.80;;;;;;;;;;5026899;28;20049;-84
2023/02/27 08:37:44;;;;;;;7.68;1.88;;;;;;;;;;5024176;28;20088;-84
2023/02/27 08:40:11;;;;;;;7.65;2.30;;;;;;;;;;5026077;28;20123;-83
2023/02/27 08:42:37;;;;;;;10.02;3.03;;;;;;;;;;5040410;28;20566;-84
2023/02/27 08:45:04;;;;;;;8.63;2.38;;;;;;;;;;5025839;28;20449;-84
2023/02/27 08:47:30;;;;;;;8.25;2.45;;;;;;;;;;5023437;28;20120;-85
2023/02/27 08:49:56;;;;;;;8.93;2.03;;;;;;;;;;5025607;28;20037;-84
2023/02/27 08:52:22;;;;;;;9.30;2.53;;;;;;;;;;5027672;28;20053;-84
2023/02/27 08:54:48;;;;;;;13.18;2.35;;;;;;;;;;5023224;28;20119;-84
2023/02/27 08:57:15;;;;;;;12.80;2.45;;;;;;;;;;5028359;28;20881;-84
2023/02/27 08:59:41;;;;;;;13.18;2.53;;;;;;;;;;5027740;28;20041;-85
2023/02/27 09:02:07;;;;;;;13.27;2.45;;;;;;;;;;5026427;28;20154;-85
2023/02/27 09:04:33;;;;;;;9.05;2.17;;;;;;;;;;5027336;28;20040;-85
2023/02/27 09:07:00;;;;;;;8.88;2.53;;;;;;;;;;5026394;28;20457;-86
2023/02/27 09:09:26;;;;;;;9.60;2.10;;;;;;;;;;5026204;28;20486;-85
2023/02/27 09:11:52;;;;;;;9.32;2.22;;;;;;;;;;5024898;28;20067;-85
2023/02/27 09:14:18;;;;;;;10.90;2.05;;;;;;;;;;5026020;28;20484;-85
2023/02/27 09:16:45;;;;;;;11.45;2.40;;;;;;;;;;5025261;28;20049;-86
2023/02/27 09:19:13;;;;;;;13.27;2.53;;;;;;;;;;5024149;28;20049;-80
2023/02/27 09:21:39;;;;;;;12.85;2.75;;;;;;;;;;5026011;28;20150;-86
2023/02/27 09:24:06;;;;;;;10.95;2.67;;;;;;;;;;5025226;28;20045;-86
2023/02/27 09:26:32;;;;;;;11.02;2.35;;;;;;;;;;5025279;28;20135;-86
2023/02/27 09:28:58;;;;;;;15.57;3.45;;;;;;;;;;5025713;28;20045;-86
2023/02/27 09:31:25;;;;;;;10.82;2.38;;;;;;;;;;5024301;28;20135;-86
2023/02/27 09:33:51;;;;;;;10.50;2.38;;;;;;;;;;5025379;28;20053;-86
2023/02/27 09:36:17;;;;;;;10.85;2.45;;;;;;;;;;5024227;28;20132;-86
2023/02/27 09:38:43;;;;;;;8.18;2.25;;;;;;;;;;5026392;28;20061;-86
2023/02/27 09:41:40;;;;;;;7.13;2.28;;;;;;;;;;5135419;27;20111;-83
2023/02/27 09:44:15;;;;;;;8.88;2.35;;;;;;;;;;5102809;28;20146;-89
2023/02/27 09:46:41;;;;;;;11.80;2.70;;;;;;;;;;5119316;28;20040;-90
2023/02/27 09:49:11;;;;;;;6.53;2.05;;;;;;;;;;5123179;28;20122;-90
2023/02/27 09:51:37;;;;;;;8.05;2.13;;;;;;;;;;5098536;28;20152;-89
2023/02/27 09:54:04;;;;;;;9.27;2.05;;;;;;;;;;5109478;28;20628;-89
2023/02/27 09:56:34;;;;;;;8.85;1.73;;;;;;;;;;5095069;28;20386;-84
2023/02/27 09:59:00;;;;;;;4.68;1.52;;;;;;;;;;5116186;28;20131;-86
2023/02/27 10:01:30;;;;;;;9.10;1.70;;;;;;;;;;5123665;28;20103;-85
2023/02/27 10:04:03;;;;;;;8.77;1.27;;;;;;;;;;5099270;28;20100;-84
2023/02/27 10:06:35;;;;;;;5.47;1.17;;;;;;;;;;5115448;28;20108;-85
2023/02/27 10:09:06;;;;;;;10.65;1.35;;;;;;;;;;5102344;28;20126;-85
2023/02/27 10:11:38;;;;;;;8.23;2.10;;;;;;;;;;5126701;28;20072;-85
2023/02/27 10:14:14;;;;;;;11.52;1.63;;;;;;;;;;5138148;28;20052;-86
2023/02/27 10:16:40;;;;;;;7.10;1.63;;;;;;;;;;5141508;28;20056;-86
2023/02/27 10:19:13;;;;;;;9.98;1.92;;;;;;;;;;5119673;28;20066;-85
2023/02/27 10:21:43;;;;;;;6.50;1.33;;;;;;;;;;5099945;28;20121;-85
2023/02/27 10:24:31;;;;;;;5.20;1.20;;;;;;;;;;5102098;28;20156;-81
2023/02/27 10:26:58;;;;;;;4.80;0.70;;;;;;;;;;5121236;28;20485;-81
2023/02/27 10:29:29;;;;;;;4.90;1.20;;;;;;;;;;5096652;28;20638;-82
2023/02/27 10:32:05;;;;;;;4.40;0.95;;;;;;;;;;5091991;28;20066;-82
2023/02/27 10:34:32;;;;;;;4.10;0.90;;;;;;;;;;5086080;28;20280;-82
2023/02/27 10:37:00;;;;;;;5.57;1.10;;;;;;;;;;5125575;28;20130;-80
2023/02/27 10:39:28;;;;;;;3.90;0.75;;;;;;;;;;5136942;28;20065;-81
2023/02/27 10:41:59;;;;;;;6.38;1.58;;;;;;;;;;5117761;28;20047;-82
2023/02/27 10:44:25;;;;;;;6.75;0.98;;;;;;;;;;5110540;28;20110;-81
2023/02/27 10:46:51;;;;;;;7.70;1.10;;;;;;;;;;5120144;28;20051;-80
2023/02/27 10:49:19;;;;;;;4.72;0.90;;;;;;;;;;5122783;28;20074;-80
2023/02/27 10:51:45;;;;;;;5.30;0.88;;;;;;;;;;5110985;28;20512;-81
2023/02/27 10:54:12;;;;;;;2.67;1.15;;;;;;;;;;5106451;28;20131;-79
2023/02/27 10:56:39;;;;;;;6.25;1.05;;;;;;;;;;5091592;28;20083;-78
2023/02/27 10:59:06;;;;;;;3.72;0.68;;;;;;;;;;5107644;28;20085;-80
2023/02/27 11:01:41;;;;;;;4.68;0.63;;;;;;;;;;5082581;28;20498;-80
2023/02/27 11:04:07;;;;;;;6.07;0.88;;;;;;;;;;5090048;28;20074;-81
2023/02/27 11:06:33;;;;;;;7.53;0.98;;;;;;;;;;5106124;28;20035;-82
2023/02/27 11:09:19;;;;;;;4.90;0.90;;;;;;;;;;5085331;28;20052;-80
2023/02/27 11:11:45;;;;;;;4.63;0.90;;;;;;;;;;5083291;28;20043;-79
2023/02/27 11:14:23;;;;;;;2.63;0.88;;;;;;;;;;5088040;28;20078;-86
2023/02/27 11:16:51;;;;;;;2.03;0.55;;;;;;;;;;5106179;28;20039;-85
2023/02/27 11:19:34;;;;;;;2.83;0.63;;;;;;;;;;5081953;28;20139;-85
2023/02/27 11:22:02;;;;;;;2.83;0.80;;;;;;;;;;5086838;28;20181;-83
2023/02/27 11:24:28;;;;;;;3.67;0.90;;;;;;;;;;5102156;28;20052;-84
2023/02/27 11:26:56;;;;;;;3.45;0.75;;;;;;;;;;5103450;28;20068;-84
2023/02/27 11:29:22;;;;;;;4.07;0.63;;;;;;;;;;5103521;28;20058;-84
2023/02/27 11:31:53;;;;;;;5.20;0.63;;;;;;;;;;5106508;28;20123;-84
2023/02/27 11:34:22;;;;;;;4.70;0.50;;;;;;;;;;5107541;28;20043;-86
2023/02/27 11:36:49;;;;;;;3.70;0.60;;;;;;;;;;5111212;28;20046;-84
2023/02/27 11:39:21;;;;;;;2.13;0.40;;;;;;;;;;5081798;28;20056;-82
2023/02/27 11:41:48;;;;;;;3.83;1.13;;;;;;;;;;5087173;28;20055;-82
2023/02/27 11:44:19;;;;;;;1.23;0.50;;;;;;;;;;5067894;28;20374;-85
2023/02/27 11:46:45;;;;;;;1.27;0.50;;;;;;;;;;5103522;28;20048;-77
2023/02/27 11:49:26;;;;;;;4.38;0.50;;;;;;;;;;5105791;28;20136;-76
2023/02/27 11:52:11;;;;;;;3.70;0.50;;;;;;;;;;5104397;28;20035;-81
2023/02/27 11:54:40;;;;;;;3.00;0.52;;;;;;;;;;5084319;28;20051;-83
2023/02/27 11:57:14;;;;;;;2.70;0.50;;;;;;;;;;5086730;28;20844;-84
2023/02/27 11:59:44;;;;;;;4.28;0.40;;;;;;;;;;5085477;28;20048;-84
2023/02/27 12:02:14;;;;;;;1.58;0.57;;;;;;;;;;5083843;28;20055;-84
2023/02/27 12:04:56;;;;;;;3.20;0.50;;;;;;;;;;5100313;28;20040;-84
2023/02/27 12:07:30;;;;;;;1.95;0.60;;;;;;;;;;5083644;28;20118;-84
2023/02/27 12:09:59;;;;;;;1.73;0.50;;;;;;;;;;5103067;28;20458;-84
2023/02/27 12:12:41;;;;;;;5.97;0.70;;;;;;;;;;5103284;28;20512;-84
2023/02/27 12:15:18;;;;;;;3.03;0.63;;;;;;;;;;5099833;28;20074;-76
2023/02/27 12:17:47;;;;;;;3.72;0.68;;;;;;;;;;5102434;28;20042;-83
2023/02/27 12:20:14;;;;;;;2.65;0.68;;;;;;;;;;5082935;28;20048;-84
2023/02/27 12:22:44;;;;;;;1.85;0.60;;;;;;;;;;5081060;28;20043;-84
2023/02/27 12:25:15;;;;;;;1.77;0.43;;;;;;;;;;5101370;28;20043;-83
2023/02/27 12:27:44;;;;;;;3.60;0.73;;;;;;;;;;5099671;28;20036;-84
2023/02/27 12:30:21;;;;;;;3.33;0.60;;;;;;;;;;5102845;28;20131;-85
2023/02/27 12:32:56;;;;;;;1.85;0.40;;;;;;;;;;5105706;28;20043;-84
2023/02/27 12:35:25;;;;;;;2.78;0.60;;;;;;;;;;5086672;28;20183;-84
2023/02/27 12:37:52;;;;;;;2.22;0.60;;;;;;;;;;5089481;28;20050;-85
2023/02/27 12:40:19;;;;;;;2.53;0.50;;;;;;;;;;5106792;28;20406;-85
2023/02/27 12:43:02;;;;;;;1.48;0.50;;;;;;;;;;5087508;28;20089;-85
2023/02/27 12:45:44;;;;;;;4.70;0.60;;;;;;;;;;5089425;28;20394;-85
2023/02/27 12:48:27;;;;;;;3.55;0.60;;;;;;;;;;5084245;28;20212;-85
2023/02/27 12:50:59;;;;;;;3.17;0.60;;;;;;;;;;5100957;28;20081;-85
2023/02/27 12:53:25;;;;;;;2.03;0.50;;;;;;;;;;5108045;28;20092;-85
2023/02/27 12:55:54;;;;;;;1.38;0.47;;;;;;;;;;5087255;28;20069;-85
2023/02/27 12:58:21;;;;;;;1.38;0.55;;;;;;;;;;5087229;28;20040;-85
2023/02/27 13:00:51;;;;;;;1.63;0.57;;;;;;;;;;5093525;28;20054;-86
2023/02/27 13:03:28;;;;;;;3.10;0.60;;;;;;;;;;5103308;28;20040;-85
2023/02/27 13:06:00;;;;;;;2.33;0.52;;;;;;;;;;5086446;28;20043;-84
2023/02/27 13:08:45;;;;;;;2.55;0.57;;;;;;;;;;5103684;28;20039;-85
2023/02/27 13:11:24;;;;;;;1.88;0.52;;;;;;;;;;5086474;28;20394;-85
2023/02/27 13:13:55;;;;;;;1.73;0.63;;;;;;;;;;5086189;28;20107;-85
2023/02/27 13:16:24;;;;;;;4.80;0.50;;;;;;;;;;5084774;28;20116;-85
2023/02/27 13:19:03;;;;;;;3.33;0.50;;;;;;;;;;5104941;28;20461;-85
2023/02/27 13:21:34;;;;;;;1.80;0.60;;;;;;;;;;5105617;28;20043;-85
2023/02/27 13:24:13;;;;;;;3.95;1.13;;;;;;;;;;5106035;28;20383;-85
2023/02/27 13:26:43;;;;;;;1.98;0.68;;;;;;;;;;5105981;28;20066;-85
2023/02/27 13:29:14;;;;;;;2.55;0.60;;;;;;;;;;5104542;28;20122;-85
2023/02/27 13:31:46;;;;;;;1.45;0.40;;;;;;;;;;5084199;28;20043;-82
2023/02/27 13:34:16;;;;;;;4.10;0.57;;;;;;;;;;5084352;28;20131;-83
2023/02/27 13:36:46;;;;;;;2.45;0.70;;;;;;;;;;5100774;28;20043;-82
2023/02/27 13:39:31;;;;;;;2.05;0.65;;;;;;;;;;5084543;28;20721;-81
2023/02/27 13:41:57;;;;;;;1.55;0.50;;;;;;;;;;5082248;28;20173;-82
2023/02/27 13:44:25;;;;;;;2.95;0.82;;;;;;;;;;5083753;28;20082;-83
2023/02/27 13:46:51;;;;;;;2.78;0.70;;;;;;;;;;5082541;28;20533;-81
2023/02/27 13:49:19;;;;;;;4.40;0.80;;;;;;;;;;5082707;28;20043;-82
2023/02/27 13:51:46;;;;;;;5.35;0.60;;;;;;;;;;5065702;28;20092;-82
2023/02/27 13:54:14;;;;;;;2.03;0.68;;;;;;;;;;5083595;28;20452;-82
2023/02/27 13:56:49;;;;;;;3.15;0.60;;;;;;;;;;5100144;28;20384;-81
2023/02/27 13:59:21;;;;;;;1.77;0.60;;;;;;;;;;5101426;28;20040;-81
2023/02/27 14:01:59;;;;;;;2.35;0.50;;;;;;;;;;5088243;28;20096;-81
2023/02/27 14:04:26;;;;;;;2.45;0.50;;;;;;;;;;5083505;28;20058;-81
2023/02/27 14:07:00;;;;;;;4.93;0.82;;;;;;;;;;5067326;28;20052;-81
2023/02/27 14:09:31;;;;;;;5.35;1.23;;;;;;;;;;5084752;28;20139;-81
2023/02/27 14:11:59;;;;;;;2.80;0.60;;;;;;;;;;5067741;28;20035;-81
2023/02/27 14:14:35;;;;;;;2.80;0.70;;;;;;;;;;5082866;28;20131;-80
2023/02/27 14:17:02;;;;;;;2.28;0.60;;;;;;;;;;5098570;28;20402;-81
2023/02/27 14:19:32;;;;;;;1.35;0.47;;;;;;;;;;5085389;28;20040;-81
2023/02/27 14:22:00;;;;;;;2.80;0.70;;;;;;;;;;5084501;28;20047;-81
2023/02/27 14:24:35;;;;;;;4.05;0.60;;;;;;;;;;5073070;28;20116;-81
2023/02/27 14:27:02;;;;;;;3.05;0.60;;;;;;;;;;5105090;28;20055;-81
2023/02/27 14:29:32;;;;;;;2.88;0.70;;;;;;;;;;5085598;28;20040;-81
2023/02/27 14:32:00;;;;;;;3.80;0.70;;;;;;;;;;5103465;28;20091;-81
2023/02/27 14:34:27;;;;;;;2.90;0.60;;;;;;;;;;5086757;28;20130;-81
2023/02/27 14:36:55;;;;;;;1.92;0.50;;;;;;;;;;5101685;28;20451;-80
2023/02/27 14:39:23;;;;;;;2.78;0.98;;;;;;;;;;5084578;28;20056;-80
2023/02/27 14:42:05;;;;;;;3.30;0.90;;;;;;;;;;5087592;28;20470;-80
2023/02/27 14:44:37;;;;;;;2.60;0.60;;;;;;;;;;5084957;28;20161;-81
2023/02/27 14:47:04;;;;;;;7.83;0.97;;;;;;;;;;5103091;28;20045;-80
2023/02/27 14:49:32;;;;;;;1.50;0.47;;;;;;;;;;5091065;28;20059;-81
2023/02/27 14:52:12;;;;;;;5.28;0.90;;;;;;;;;;5088967;28;20508;-81
2023/02/27 14:54:39;;;;;;;1.67;0.50;;;;;;;;;;5090094;28;20498;-83
2023/02/27 14:57:06;;;;;;;4.32;0.90;;;;;;;;;;5105609;28;20088;-82